sensor_id;sensor_type;location;lat;lon;timestamp;temperature;humidity
43015;DHT22;28637;50.554;7.032;2023-05-07T00:02:47;13.10;99.90
43015;DHT22;28637;50.554;7.032;2023-05-07T00:07:48;13.10;99.90
43015;DHT22;28637;50.554;7.032;2023-05-07T00:12:49;13.20;99.90
43015;DHT22;28637;50.554;7.032;2023-05-07T00:17:49;13.20;99.90
43015;DHT22;28637;50.554;7.032;2023-05-07T00:22:50;13.20;99.90
43015;DHT22;28637;50.554;7.032;2023-05-07T00:27:50;13.20;99.90
43015;DHT22;28637;50.554;7.032;2023-05-07T00:32:51;13.30;99.90
43015;DHT22;28637;50.554;7.032;2023-05-07T00:37:52;13.40;99.90
43015;DHT22;28637;50.554;7.032;2023-05-07T00:42:52;13.40;99.90
43015;DHT22;28637;50.554;7.032;2023-05-07T00:47:59;13.50;99.90
43015;DHT22;28637;50.554;7.032;2023-05-07T00:53:00;13.40;99.90
43015;DHT22;28637;50.554;7.032;2023-05-07T00:58:00;13.40;99.90
43015;DHT22;28637;50.554;7.032;2023-05-07T01:03:01;13.40;99.90
43015;DHT22;28637;50.554;7.032;2023-05-07T01:08:02;13.40;99.90
43015;DHT22;28637;50.554;7.032;2023-05-07T01:13:04;13.40;99.90
43015;DHT22;28637;50.554;7.032;2023-05-07T01:18:05;13.40;99.90
43015;DHT22;28637;50.554;7.032;2023-05-07T01:23:07;13.40;99.90
43015;DHT22;28637;50.554;7.032;2023-05-07T01:28:08;13.20;99.90
43015;DHT22;28637;50.554;7.032;2023-05-07T01:33:11;13.20;99.90
43015;DHT22;28637;50.554;7.032;2023-05-07T01:38:13;13.20;99.90
43015;DHT22;28637;50.554;7.032;2023-05-07T01:43:14;13.10;99.90
43015;DHT22;28637;50.554;7.032;2023-05-07T01:48:15;13.10;99.90
43015;DHT22;28637;50.554;7.032;2023-05-07T01:53:16;13.10;99.90
43015;DHT22;28637;50.554;7.032;2023-05-07T01:58:17;13.20;99.90
43015;DHT22;28637;50.554;7.032;2023-05-07T02:03:18;13.20;99.90
43015;DHT22;28637;50.554;7.032;2023-05-07T02:08:18;13.20;99.90
43015;DHT22;28637;50.554;7.032;2023-05-07T02:13:19;13.20;99.90
43015;DHT22;28637;50.554;7.032;2023-05-07T02:18:20;13.30;99.90
43015;DHT22;28637;50.554;7.032;2023-05-07T02:23:20;13.30;99.90
43015;DHT22;28637;50.554;7.032;2023-05-07T02:28:21;13.20;99.90
43015;DHT22;28637;50.554;7.032;2023-05-07T02:33:22;13.20;99.90
43015;DHT22;28637;50.554;7.032;2023-05-07T02:38:23;13.10;99.90
43015;DHT22;28637;50.554;7.032;2023-05-07T02:43:23;13.10;99.90
43015;DHT22;28637;50.554;7.032;2023-05-07T02:48:24;13.00;99.90
43015;DHT22;28637;50.554;7.032;2023-05-07T02:53:25;13.00;99.90
43015;DHT22;28637;50.554;7.032;2023-05-07T02:58:26;13.00;99.90
43015;DHT22;28637;50.554;7.032;2023-05-07T03:03:27;13.00;99.90
43015;DHT22;28637;50.554;7.032;2023-05-07T03:08:28;13.00;99.90
43015;DHT22;28637;50.554;7.032;2023-05-07T03:13:28;13.00;99.90
43015;DHT22;28637;50.554;7.032;2023-05-07T03:18:29;13.00;99.90
43015;DHT22;28637;50.554;7.032;2023-05-07T03:23:29;13.00;99.90
43015;DHT22;28637;50.554;7.032;2023-05-07T03:28:30;13.00;99.90
43015;DHT22;28637;50.554;7.032;2023-05-07T03:33:33;13.10;99.90
43015;DHT22;28637;50.554;7.032;2023-05-07T03:38:34;13.00;99.90
43015;DHT22;28637;50.554;7.032;2023-05-07T03:43:34;12.90;99.90
43015;DHT22;28637;50.554;7.032;2023-05-07T03:48:35;12.90;99.90
43015;DHT22;28637;50.554;7.032;2023-05-07T03:53:36;13.00;99.90
43015;DHT22;28637;50.554;7.032;2023-05-07T03:58:37;13.00;99.90
43015;DHT22;28637;50.554;7.032;2023-05-07T04:03:37;13.00;99.90
43015;DHT22;28637;50.554;7.032;2023-05-07T04:08:38;13.10;99.90
43015;DHT22;28637;50.554;7.032;2023-05-07T04:13:38;13.00;99.90
43015;DHT22;28637;50.554;7.032;2023-05-07T04:18:39;13.10;99.90
43015;DHT22;28637;50.554;7.032;2023-05-07T04:23:40;13.10;99.90
43015;DHT22;28637;50.554;7.032;2023-05-07T04:28:40;13.10;99.90
43015;DHT22;28637;50.554;7.032;2023-05-07T04:33:41;13.10;99.90
43015;DHT22;28637;50.554;7.032;2023-05-07T04:38:42;13.10;99.90
43015;DHT22;28637;50.554;7.032;2023-05-07T04:43:42;13.20;99.90
43015;DHT22;28637;50.554;7.032;2023-05-07T04:48:43;13.30;99.90
43015;DHT22;28637;50.554;7.032;2023-05-07T04:53:43;13.20;99.90
43015;DHT22;28637;50.554;7.032;2023-05-07T04:58:44;13.20;99.90
43015;DHT22;28637;50.554;7.032;2023-05-07T05:03:45;13.30;99.90
43015;DHT22;28637;50.554;7.032;2023-05-07T05:08:45;13.40;99.90
43015;DHT22;28637;50.554;7.032;2023-05-07T05:13:46;13.50;99.90
43015;DHT22;28637;50.554;7.032;2023-05-07T05:18:49;13.50;99.90
43015;DHT22;28637;50.554;7.032;2023-05-07T05:23:50;13.60;99.90
43015;DHT22;28637;50.554;7.032;2023-05-07T05:28:50;13.70;99.90
43015;DHT22;28637;50.554;7.032;2023-05-07T05:33:51;13.70;99.90
43015;DHT22;28637;50.554;7.032;2023-05-07T05:38:52;13.80;99.90
43015;DHT22;28637;50.554;7.032;2023-05-07T05:43:52;13.90;99.90
43015;DHT22;28637;50.554;7.032;2023-05-07T05:48:53;14.10;99.90
43015;DHT22;28637;50.554;7.032;2023-05-07T05:53:54;14.20;99.90
43015;DHT22;28637;50.554;7.032;2023-05-07T05:58:55;14.30;99.90
43015;DHT22;28637;50.554;7.032;2023-05-07T06:03:56;14.30;99.90
43015;DHT22;28637;50.554;7.032;2023-05-07T06:08:57;14.30;99.90
43015;DHT22;28637;50.554;7.032;2023-05-07T06:13:58;14.40;99.90
43015;DHT22;28637;50.554;7.032;2023-05-07T06:18:58;14.60;99.90
43015;DHT22;28637;50.554;7.032;2023-05-07T06:23:59;14.80;99.90
43015;DHT22;28637;50.554;7.032;2023-05-07T06:28:59;14.90;99.90
43015;DHT22;28637;50.554;7.032;2023-05-07T06:34:00;15.10;99.90
43015;DHT22;28637;50.554;7.032;2023-05-07T06:39:02;15.20;99.90
43015;DHT22;28637;50.554;7.032;2023-05-07T06:44:03;15.30;99.90
43015;DHT22;28637;50.554;7.032;2023-05-07T06:49:03;15.40;99.90
43015;DHT22;28637;50.554;7.032;2023-05-07T06:54:04;15.50;99.90
43015;DHT22;28637;50.554;7.032;2023-05-07T06:59:06;15.70;99.90
43015;DHT22;28637;50.554;7.032;2023-05-07T07:04:06;15.90;99.90
43015;DHT22;28637;50.554;7.032;2023-05-07T07:09:07;16.10;99.90
43015;DHT22;28637;50.554;7.032;2023-05-07T07:14:08;16.30;99.90
43015;DHT22;28637;50.554;7.032;2023-05-07T07:19:08;16.40;99.90
43015;DHT22;28637;50.554;7.032;2023-05-07T07:24:09;16.60;99.90
43015;DHT22;28637;50.554;7.032;2023-05-07T07:29:09;16.80;99.90
43015;DHT22;28637;50.554;7.032;2023-05-07T07:34:10;16.90;99.90
43015;DHT22;28637;50.554;7.032;2023-05-07T07:39:11;17.00;99.90
43015;DHT22;28637;50.554;7.032;2023-05-07T07:44:11;17.00;99.90
43015;DHT22;28637;50.554;7.032;2023-05-07T07:49:13;17.00;99.90
43015;DHT22;28637;50.554;7.032;2023-05-07T07:54:13;17.00;99.90
43015;DHT22;28637;50.554;7.032;2023-05-07T07:59:14;17.00;99.90
43015;DHT22;28637;50.554;7.032;2023-05-07T08:04:19;17.10;99.90
43015;DHT22;28637;50.554;7.032;2023-05-07T08:09:19;17.30;99.90
43015;DHT22;28637;50.554;7.032;2023-05-07T08:14:20;17.40;99.90
43015;DHT22;28637;50.554;7.032;2023-05-07T08:19:21;17.70;99.90
43015;DHT22;28637;50.554;7.032;2023-05-07T08:24:22;17.90;99.90
43015;DHT22;28637;50.554;7.032;2023-05-07T08:29:23;18.20;99.90
43015;DHT22;28637;50.554;7.032;2023-05-07T08:34:23;18.50;99.90
43015;DHT22;28637;50.554;7.032;2023-05-07T08:39:24;18.70;99.90
43015;DHT22;28637;50.554;7.032;2023-05-07T08:44:26;19.10;99.90
43015;DHT22;28637;50.554;7.032;2023-05-07T08:49:28;19.30;99.90
43015;DHT22;28637;50.554;7.032;2023-05-07T08:54:29;19.50;99.90
43015;DHT22;28637;50.554;7.032;2023-05-07T08:59:31;19.80;99.90
43015;DHT22;28637;50.554;7.032;2023-05-07T09:04:31;19.80;99.90
43015;DHT22;28637;50.554;7.032;2023-05-07T09:09:33;19.90;99.90
43015;DHT22;28637;50.554;7.032;2023-05-07T09:14:34;20.10;99.90
43015;DHT22;28637;50.554;7.032;2023-05-07T09:19:34;20.30;99.90
43015;DHT22;28637;50.554;7.032;2023-05-07T09:24:37;20.50;99.90
43015;DHT22;28637;50.554;7.032;2023-05-07T09:29:38;20.80;99.90
43015;DHT22;28637;50.554;7.032;2023-05-07T09:34:38;21.10;99.90
43015;DHT22;28637;50.554;7.032;2023-05-07T09:39:49;21.30;99.90
43015;DHT22;28637;50.554;7.032;2023-05-07T09:44:50;21.30;99.90
43015;DHT22;28637;50.554;7.032;2023-05-07T09:49:56;21.60;99.90
43015;DHT22;28637;50.554;7.032;2023-05-07T09:54:58;21.90;99.90
43015;DHT22;28637;50.554;7.032;2023-05-07T10:00:00;22.10;99.90
43015;DHT22;28637;50.554;7.032;2023-05-07T10:05:03;22.40;99.90
43015;DHT22;28637;50.554;7.032;2023-05-07T10:10:05;22.60;99.90
43015;DHT22;28637;50.554;7.032;2023-05-07T10:15:10;22.70;99.90
43015;DHT22;28637;50.554;7.032;2023-05-07T10:20:11;22.80;99.90
43015;DHT22;28637;50.554;7.032;2023-05-07T10:25:16;23.10;99.90
43015;DHT22;28637;50.554;7.032;2023-05-07T10:35:32;23.40;99.90
43015;DHT22;28637;50.554;7.032;2023-05-07T10:40:36;23.30;99.90
43015;DHT22;28637;50.554;7.032;2023-05-07T10:45:37;23.00;99.90
43015;DHT22;28637;50.554;7.032;2023-05-07T10:50:39;22.90;99.90
43015;DHT22;28637;50.554;7.032;2023-05-07T10:55:39;22.80;99.90
43015;DHT22;28637;50.554;7.032;2023-05-07T11:00:43;22.70;99.90
43015;DHT22;28637;50.554;7.032;2023-05-07T11:10:57;22.50;99.90
43015;DHT22;28637;50.554;7.032;2023-05-07T11:15:58;22.80;99.90
43015;DHT22;28637;50.554;7.032;2023-05-07T11:20:59;23.10;99.90
43015;DHT22;28637;50.554;7.032;2023-05-07T11:26:04;23.30;99.90
43015;DHT22;28637;50.554;7.032;2023-05-07T11:31:05;23.30;99.90
43015;DHT22;28637;50.554;7.032;2023-05-07T11:36:07;23.30;99.90
43015;DHT22;28637;50.554;7.032;2023-05-07T11:41:08;23.30;99.90
43015;DHT22;28637;50.554;7.032;2023-05-07T11:46:09;23.40;99.90
43015;DHT22;28637;50.554;7.032;2023-05-07T11:51:10;23.40;99.90
43015;DHT22;28637;50.554;7.032;2023-05-07T11:56:14;23.40;99.90
43015;DHT22;28637;50.554;7.032;2023-05-07T12:01:15;23.50;99.90
43015;DHT22;28637;50.554;7.032;2023-05-07T12:06:17;23.60;99.90
43015;DHT22;28637;50.554;7.032;2023-05-07T12:11:25;23.90;99.90
43015;DHT22;28637;50.554;7.032;2023-05-07T12:16:26;24.00;99.90
43015;DHT22;28637;50.554;7.032;2023-05-07T12:21:27;23.90;99.90
43015;DHT22;28637;50.554;7.032;2023-05-07T12:26:28;23.90;99.90
43015;DHT22;28637;50.554;7.032;2023-05-07T12:31:29;23.70;99.90
43015;DHT22;28637;50.554;7.032;2023-05-07T12:36:37;23.80;99.90
43015;DHT22;28637;50.554;7.032;2023-05-07T12:41:58;23.70;99.50
43015;DHT22;28637;50.554;7.032;2023-05-07T12:47:02;23.50;99.90
43015;DHT22;28637;50.554;7.032;2023-05-07T12:52:03;23.50;99.70
43015;DHT22;28637;50.554;7.032;2023-05-07T12:57:07;23.40;99.90
43015;DHT22;28637;50.554;7.032;2023-05-07T13:02:08;23.30;99.60
43015;DHT22;28637;50.554;7.032;2023-05-07T13:07:09;23.20;99.90
43015;DHT22;28637;50.554;7.032;2023-05-07T13:12:10;23.10;99.90
43015;DHT22;28637;50.554;7.032;2023-05-07T13:17:10;23.00;99.90
43015;DHT22;28637;50.554;7.032;2023-05-07T13:22:11;22.80;99.00
43015;DHT22;28637;50.554;7.032;2023-05-07T13:27:12;22.60;99.90
43015;DHT22;28637;50.554;7.032;2023-05-07T13:32:12;22.10;99.90
43015;DHT22;28637;50.554;7.032;2023-05-07T13:37:13;21.60;99.90
43015;DHT22;28637;50.554;7.032;2023-05-07T13:42:14;21.10;99.90
43015;DHT22;28637;50.554;7.032;2023-05-07T13:47:14;20.60;99.90
43015;DHT22;28637;50.554;7.032;2023-05-07T13:52:16;20.10;99.90
43015;DHT22;28637;50.554;7.032;2023-05-07T13:57:17;19.80;99.90
43015;DHT22;28637;50.554;7.032;2023-05-07T14:02:17;19.50;99.90
43015;DHT22;28637;50.554;7.032;2023-05-07T14:07:18;19.20;99.90
43015;DHT22;28637;50.554;7.032;2023-05-07T14:12:19;18.90;99.90
43015;DHT22;28637;50.554;7.032;2023-05-07T14:17:19;18.50;99.90
43015;DHT22;28637;50.554;7.032;2023-05-07T14:22:21;18.20;99.90
43015;DHT22;28637;50.554;7.032;2023-05-07T14:27:22;18.00;99.90
43015;DHT22;28637;50.554;7.032;2023-05-07T14:32:23;17.80;99.90
43015;DHT22;28637;50.554;7.032;2023-05-07T14:37:24;17.40;99.90
43015;DHT22;28637;50.554;7.032;2023-05-07T14:42:24;17.30;99.90
43015;DHT22;28637;50.554;7.032;2023-05-07T14:47:25;17.20;99.90
43015;DHT22;28637;50.554;7.032;2023-05-07T14:52:26;17.10;99.90
43015;DHT22;28637;50.554;7.032;2023-05-07T14:57:27;17.00;99.90
43015;DHT22;28637;50.554;7.032;2023-05-07T15:02:28;16.90;99.90
43015;DHT22;28637;50.554;7.032;2023-05-07T15:07:29;16.90;99.90
43015;DHT22;28637;50.554;7.032;2023-05-07T15:12:29;16.80;99.90
43015;DHT22;28637;50.554;7.032;2023-05-07T15:17:30;16.80;99.90
43015;DHT22;28637;50.554;7.032;2023-05-07T15:22:31;16.70;99.90
43015;DHT22;28637;50.554;7.032;2023-05-07T15:27:31;16.70;99.90
43015;DHT22;28637;50.554;7.032;2023-05-07T15:32:32;16.60;99.90
43015;DHT22;28637;50.554;7.032;2023-05-07T15:37:33;16.60;99.90
43015;DHT22;28637;50.554;7.032;2023-05-07T15:42:34;16.60;99.90
43015;DHT22;28637;50.554;7.032;2023-05-07T15:47:37;16.60;99.90
43015;DHT22;28637;50.554;7.032;2023-05-07T15:52:38;16.70;99.90
43015;DHT22;28637;50.554;7.032;2023-05-07T15:57:40;16.60;99.90
43015;DHT22;28637;50.554;7.032;2023-05-07T16:02:40;16.50;99.90
43015;DHT22;28637;50.554;7.032;2023-05-07T16:07:41;16.40;99.90
43015;DHT22;28637;50.554;7.032;2023-05-07T16:17:54;16.40;99.90
43015;DHT22;28637;50.554;7.032;2023-05-07T16:22:57;16.50;99.90
43015;DHT22;28637;50.554;7.032;2023-05-07T16:27:58;16.50;99.90
43015;DHT22;28637;50.554;7.032;2023-05-07T16:32:58;16.50;99.90
43015;DHT22;28637;50.554;7.032;2023-05-07T16:37:59;16.40;99.90
43015;DHT22;28637;50.554;7.032;2023-05-07T16:43:00;16.30;99.90
43015;DHT22;28637;50.554;7.032;2023-05-07T16:48:01;16.10;99.90
43015;DHT22;28637;50.554;7.032;2023-05-07T16:53:04;16.10;99.90
43015;DHT22;28637;50.554;7.032;2023-05-07T16:58:07;16.00;99.90
43015;DHT22;28637;50.554;7.032;2023-05-07T17:03:08;16.00;99.90
43015;DHT22;28637;50.554;7.032;2023-05-07T17:08:09;15.90;99.90
43015;DHT22;28637;50.554;7.032;2023-05-07T17:13:10;16.00;99.90
43015;DHT22;28637;50.554;7.032;2023-05-07T17:18:11;15.90;99.90
43015;DHT22;28637;50.554;7.032;2023-05-07T17:23:12;15.90;99.90
43015;DHT22;28637;50.554;7.032;2023-05-07T17:28:13;15.90;99.90
43015;DHT22;28637;50.554;7.032;2023-05-07T17:33:14;15.90;99.90
43015;DHT22;28637;50.554;7.032;2023-05-07T17:38:15;15.90;99.90
43015;DHT22;28637;50.554;7.032;2023-05-07T17:43:15;15.90;99.90
43015;DHT22;28637;50.554;7.032;2023-05-07T17:48:16;15.80;99.90
43015;DHT22;28637;50.554;7.032;2023-05-07T17:53:17;15.70;99.90
43015;DHT22;28637;50.554;7.032;2023-05-07T17:58:17;15.80;99.90
43015;DHT22;28637;50.554;7.032;2023-05-07T18:03:18;15.80;99.90
43015;DHT22;28637;50.554;7.032;2023-05-07T18:08:19;15.80;99.90
43015;DHT22;28637;50.554;7.032;2023-05-07T18:13:20;15.80;99.90
43015;DHT22;28637;50.554;7.032;2023-05-07T18:18:20;15.80;99.90
43015;DHT22;28637;50.554;7.032;2023-05-07T18:23:21;15.70;99.90
43015;DHT22;28637;50.554;7.032;2023-05-07T18:28:22;15.60;99.90
43015;DHT22;28637;50.554;7.032;2023-05-07T18:33:22;15.60;99.90
43015;DHT22;28637;50.554;7.032;2023-05-07T18:38:23;15.60;99.90
43015;DHT22;28637;50.554;7.032;2023-05-07T18:43:24;15.70;99.90
43015;DHT22;28637;50.554;7.032;2023-05-07T18:48:24;15.60;99.90
43015;DHT22;28637;50.554;7.032;2023-05-07T18:53:25;15.60;99.90
43015;DHT22;28637;50.554;7.032;2023-05-07T18:58:26;15.60;99.90
43015;DHT22;28637;50.554;7.032;2023-05-07T19:03:26;15.70;99.90
43015;DHT22;28637;50.554;7.032;2023-05-07T19:08:27;15.60;99.90
43015;DHT22;28637;50.554;7.032;2023-05-07T19:13:28;15.70;99.90
43015;DHT22;28637;50.554;7.032;2023-05-07T19:18:28;15.70;99.90
43015;DHT22;28637;50.554;7.032;2023-05-07T19:23:31;15.70;99.90
43015;DHT22;28637;50.554;7.032;2023-05-07T19:28:32;15.70;99.90
43015;DHT22;28637;50.554;7.032;2023-05-07T19:33:33;15.60;99.90
43015;DHT22;28637;50.554;7.032;2023-05-07T19:38:33;15.60;99.90
43015;DHT22;28637;50.554;7.032;2023-05-07T19:43:34;15.60;99.90
43015;DHT22;28637;50.554;7.032;2023-05-07T19:48:37;15.60;99.90
43015;DHT22;28637;50.554;7.032;2023-05-07T19:53:38;15.70;99.90
43015;DHT22;28637;50.554;7.032;2023-05-07T19:58:38;15.60;99.90
43015;DHT22;28637;50.554;7.032;2023-05-07T20:03:40;15.60;99.90
43015;DHT22;28637;50.554;7.032;2023-05-07T20:08:41;15.60;99.90
43015;DHT22;28637;50.554;7.032;2023-05-07T20:13:42;15.60;99.90
43015;DHT22;28637;50.554;7.032;2023-05-07T20:18:43;15.60;99.90
43015;DHT22;28637;50.554;7.032;2023-05-07T20:23:43;15.50;99.90
43015;DHT22;28637;50.554;7.032;2023-05-07T20:28:44;15.50;99.90
43015;DHT22;28637;50.554;7.032;2023-05-07T20:33:45;15.40;99.90
43015;DHT22;28637;50.554;7.032;2023-05-07T20:38:45;15.40;99.90
43015;DHT22;28637;50.554;7.032;2023-05-07T20:43:46;15.30;99.90
43015;DHT22;28637;50.554;7.032;2023-05-07T20:48:48;15.30;99.90
43015;DHT22;28637;50.554;7.032;2023-05-07T20:53:49;15.30;99.90
43015;DHT22;28637;50.554;7.032;2023-05-07T20:58:49;15.30;99.90
43015;DHT22;28637;50.554;7.032;2023-05-07T21:03:50;15.20;99.90
43015;DHT22;28637;50.554;7.032;2023-05-07T21:08:53;15.20;99.90
43015;DHT22;28637;50.554;7.032;2023-05-07T21:13:54;15.10;99.90
43015;DHT22;28637;50.554;7.032;2023-05-07T21:18:54;15.10;99.90
43015;DHT22;28637;50.554;7.032;2023-05-07T21:23:55;15.00;99.90
43015;DHT22;28637;50.554;7.032;2023-05-07T21:28:56;14.90;99.90
43015;DHT22;28637;50.554;7.032;2023-05-07T21:33:56;14.90;99.90
43015;DHT22;28637;50.554;7.032;2023-05-07T21:38:57;14.90;99.90
43015;DHT22;28637;50.554;7.032;2023-05-07T21:43:58;14.80;99.90
43015;DHT22;28637;50.554;7.032;2023-05-07T21:48:58;14.60;99.90
43015;DHT22;28637;50.554;7.032;2023-05-07T21:53:59;14.60;99.90
43015;DHT22;28637;50.554;7.032;2023-05-07T21:59:00;14.60;99.90
43015;DHT22;28637;50.554;7.032;2023-05-07T22:04:00;14.50;99.90
43015;DHT22;28637;50.554;7.032;2023-05-07T22:09:01;14.50;99.90
43015;DHT22;28637;50.554;7.032;2023-05-07T22:14:02;14.40;99.90
43015;DHT22;28637;50.554;7.032;2023-05-07T22:19:03;14.50;99.90
43015;DHT22;28637;50.554;7.032;2023-05-07T22:24:04;14.40;99.90
43015;DHT22;28637;50.554;7.032;2023-05-07T22:29:06;14.40;99.90
43015;DHT22;28637;50.554;7.032;2023-05-07T22:34:07;14.40;99.90
43015;DHT22;28637;50.554;7.032;2023-05-07T22:39:07;14.50;99.90
43015;DHT22;28637;50.554;7.032;2023-05-07T22:44:09;14.50;99.90
43015;DHT22;28637;50.554;7.032;2023-05-07T22:49:09;14.50;99.90
43015;DHT22;28637;50.554;7.032;2023-05-07T22:54:10;14.50;99.90
43015;DHT22;28637;50.554;7.032;2023-05-07T22:59:11;14.50;99.90
43015;DHT22;28637;50.554;7.032;2023-05-07T23:04:12;14.50;99.90
43015;DHT22;28637;50.554;7.032;2023-05-07T23:09:13;14.40;99.90
43015;DHT22;28637;50.554;7.032;2023-05-07T23:14:14;14.30;99.90
43015;DHT22;28637;50.554;7.032;2023-05-07T23:19:15;14.20;99.90
43015;DHT22;28637;50.554;7.032;2023-05-07T23:24:16;14.10;99.90
43015;DHT22;28637;50.554;7.032;2023-05-07T23:29:16;14.00;99.90
43015;DHT22;28637;50.554;7.032;2023-05-07T23:34:17;13.90;99.90
43015;DHT22;28637;50.554;7.032;2023-05-07T23:39:22;13.80;99.90
43015;DHT22;28637;50.554;7.032;2023-05-07T23:44:23;13.70;99.90
43015;DHT22;28637;50.554;7.032;2023-05-07T23:49:24;13.50;99.90
43015;DHT22;28637;50.554;7.032;2023-05-07T23:54:24;13.50;99.90
43015;DHT22;28637;50.554;7.032;2023-05-07T23:59:25;13.40;99.90
